Time;durP1;ratioP1;P1;durP2;ratioP2;P2;SDS_P1;SDS_P2;PMS_P1;PMS_P2;Temp;Humidity;BMP_temperature;BMP_pressure;BME280_temperature;BME280_humidity;BME280_pressure;Samples;Min_cycle;Max_cycle;Signal;HPM_P1;HPM_P2
2022/08/30 05:00:06;;;;;;;8.47;7.60;;;19.30;97.20;;;;;;1728219;28;20565;-75
2022/08/30 05:00:56;;;;;;;8.13;7.47;;;19.40;97.20;;;;;;1728104;28;20228;-75
2022/08/30 05:01:48;;;;;;;7.43;6.60;;;19.30;97.20;;;;;;1727890;28;20278;-74
2022/08/30 05:02:40;;;;;;;7.20;6.60;;;19.40;97.20;;;;;;1724815;28;20219;-75
2022/08/30 05:03:32;;;;;;;7.25;6.65;;;19.40;97.20;;;;;;1731723;28;20211;-75
2022/08/30 05:04:23;;;;;;;7.78;7.07;;;19.40;97.20;;;;;;1734227;28;20227;-75
2022/08/30 05:06:26;;;;;;;8.00;7.30;;;19.40;97.20;;;;;;1723422;28;20222;-76
2022/08/30 05:07:17;;;;;;;8.27;7.57;;;19.40;97.20;;;;;;1734018;28;20265;-75
2022/08/30 05:08:10;;;;;;;8.07;7.37;;;19.40;97.20;;;;;;1734842;28;20249;-75
2022/08/30 05:09:01;;;;;;;10.68;6.85;;;19.40;97.20;;;;;;1731081;28;20230;-76
2022/08/30 05:09:53;;;;;;;7.50;6.80;;;19.40;97.20;;;;;;1727816;28;20284;-75
2022/08/30 05:10:47;;;;;;;7.50;6.90;;;19.40;97.20;;;;;;1727787;28;20474;-75
2022/08/30 05:11:39;;;;;;;8.57;7.70;;;19.40;97.20;;;;;;1727898;28;20204;-75
2022/08/30 05:12:30;;;;;;;7.63;6.93;;;19.40;97.20;;;;;;1726938;28;20601;-75
2022/08/30 05:13:22;;;;;;;7.90;7.07;;;19.40;97.20;;;;;;1728551;28;20633;-74
2022/08/30 05:14:13;;;;;;;7.72;6.85;;;19.40;97.20;;;;;;1733926;28;20204;-75
2022/08/30 05:15:07;;;;;;;8.17;7.40;;;19.40;97.20;;;;;;1734401;28;20253;-75
2022/08/30 05:15:59;;;;;;;8.68;7.60;;;19.40;97.20;;;;;;1734694;28;20443;-74
2022/08/30 05:16:50;;;;;;;8.10;7.40;;;19.40;97.20;;;;;;1734359;28;20207;-74
2022/08/30 05:17:41;;;;;;;8.00;7.35;;;19.40;97.20;;;;;;1733696;28;20215;-74
2022/08/30 05:18:33;;;;;;;7.30;6.70;;;19.40;97.20;;;;;;1731555;28;20299;-74
2022/08/30 05:19:24;;;;;;;7.32;6.80;;;19.40;97.20;;;;;;1727829;28;20680;-75
2022/08/30 05:20:16;;;;;;;8.03;6.77;;;19.40;97.20;;;;;;1727707;28;20625;-75
2022/08/30 05:21:09;;;;;;;6.75;6.05;;;19.40;97.20;;;;;;1727772;28;20205;-75
2022/08/30 05:22:00;;;;;;;7.32;6.63;;;19.40;97.20;;;;;;1727815;28;20196;-74
2022/08/30 05:22:51;;;;;;;8.25;7.07;;;19.40;97.20;;;;;;1731100;28;20200;-74
2022/08/30 05:23:44;;;;;;;8.57;7.67;;;19.40;97.20;;;;;;1734639;28;20291;-75
2022/08/30 05:24:35;;;;;;;8.32;7.63;;;19.40;97.20;;;;;;1734360;28;20224;-74
2022/08/30 05:25:28;;;;;;;9.05;6.95;;;19.40;97.20;;;;;;1734633;28;20203;-74
2022/08/30 05:26:22;;;;;;;8.25;7.45;;;19.40;97.20;;;;;;1734679;28;20200;-74
2022/08/30 05:27:14;;;;;;;12.02;7.05;;;19.40;97.20;;;;;;1733835;28;20261;-75
2022/08/30 05:28:05;;;;;;;8.00;7.20;;;19.40;97.20;;;;;;1734498;28;20200;-74
2022/08/30 05:28:57;;;;;;;7.90;7.20;;;19.40;97.20;;;;;;1734529;28;20535;-74
2022/08/30 05:29:48;;;;;;;9.05;8.05;;;19.40;97.20;;;;;;1734521;28;20451;-74
2022/08/30 05:30:41;;;;;;;8.30;7.47;;;19.40;97.20;;;;;;1729594;28;20295;-74
2022/08/30 05:31:34;;;;;;;8.77;7.85;;;19.40;97.20;;;;;;1727693;28;20219;-74
2022/08/30 05:32:26;;;;;;;8.00;7.40;;;19.50;97.20;;;;;;1727721;28;20251;-75
2022/08/30 05:33:17;;;;;;;7.90;7.20;;;19.50;97.20;;;;;;1731294;28;20196;-74
2022/08/30 05:34:08;;;;;;;8.10;7.30;;;19.50;97.20;;;;;;1734614;28;20725;-75
2022/08/30 05:34:59;;;;;;;8.95;8.05;;;19.50;97.20;;;;;;1734522;28;20207;-75
2022/08/30 05:35:51;;;;;;;10.43;6.97;;;19.50;97.20;;;;;;1734464;28;20290;-75
2022/08/30 05:36:42;;;;;;;8.77;7.88;;;19.50;97.20;;;;;;1734435;28;20204;-75
2022/08/30 05:37:34;;;;;;;8.00;7.30;;;19.60;97.20;;;;;;1734096;28;20279;-75
2022/08/30 05:38:25;;;;;;;8.32;7.53;;;19.60;97.20;;;;;;1734250;28;20446;-75
2022/08/30 05:39:16;;;;;;;11.30;7.00;;;19.60;97.20;;;;;;1734283;28;20275;-75
2022/08/30 05:40:09;;;;;;;7.68;7.07;;;19.60;97.20;;;;;;1734482;28;20610;-75
2022/08/30 05:41:00;;;;;;;8.55;7.70;;;19.60;97.20;;;;;;1732359;28;20215;-77
2022/08/30 05:41:55;;;;;;;9.00;7.70;;;19.70;97.20;;;;;;1727586;28;20216;-76
2022/08/30 05:42:47;;;;;;;9.27;8.38;;;19.70;97.20;;;;;;1727599;28;20196;-75
2022/08/30 05:43:38;;;;;;;9.00;8.30;;;19.70;97.20;;;;;;1730056;28;20679;-76
2022/08/30 05:44:30;;;;;;;8.00;7.35;;;19.70;97.20;;;;;;1728811;28;20225;-76
2022/08/30 05:45:21;;;;;;;8.52;7.80;;;19.80;97.20;;;;;;1727527;28;20204;-76
2022/08/30 05:46:18;;;;;;;9.40;8.50;;;19.80;97.20;;;;;;1727654;28;20745;-76
2022/08/30 05:47:08;;;;;;;8.25;7.55;;;19.80;97.20;;;;;;1727379;28;20208;-75
2022/08/30 05:48:00;;;;;;;9.07;8.27;;;19.80;97.20;;;;;;1727712;28;20220;-76
2022/08/30 05:48:51;;;;;;;8.32;7.53;;;19.80;97.20;;;;;;1727540;28;20271;-76
2022/08/30 05:49:43;;;;;;;9.20;8.30;;;19.90;97.20;;;;;;1727592;28;20193;-76
2022/08/30 05:50:34;;;;;;;8.43;7.50;;;19.90;97.20;;;;;;1727513;28;20475;-75
2022/08/30 05:51:28;;;;;;;10.53;7.90;;;19.90;97.20;;;;;;1727665;28;20228;-76
2022/08/30 05:52:22;;;;;;;8.82;7.85;;;19.90;97.20;;;;;;1727661;28;20209;-76
2022/08/30 05:53:13;;;;;;;8.27;7.57;;;19.90;97.20;;;;;;1727761;28;20193;-76
2022/08/30 05:54:05;;;;;;;8.88;8.07;;;19.90;97.20;;;;;;1727172;28;20208;-76
2022/08/30 05:54:58;;;;;;;8.82;8.13;;;20.00;97.20;;;;;;1727570;28;20231;-76
2022/08/30 05:55:49;;;;;;;8.80;7.97;;;20.00;97.20;;;;;;1727539;28;20690;-76
2022/08/30 05:56:44;;;;;;;9.67;8.80;;;20.00;97.20;;;;;;1727411;28;20201;-75
2022/08/30 05:57:37;;;;;;;10.60;8.68;;;20.00;97.20;;;;;;1731577;28;20458;-75
2022/08/30 05:58:29;;;;;;;9.32;8.52;;;20.00;97.20;;;;;;1734165;28;20204;-75
2022/08/30 05:59:21;;;;;;;9.30;8.50;;;20.10;97.20;;;;;;1734454;28;20713;-75
2022/08/30 06:00:16;;;;;;;10.18;9.18;;;20.10;97.20;;;;;;1734107;28;20199;-75
2022/08/30 06:01:18;;;;;;;9.57;8.77;;;20.10;97.20;;;;;;1734379;28;20203;-75
2022/08/30 06:02:10;;;;;;;9.23;8.30;;;20.10;97.20;;;;;;1734321;28;20219;-75
2022/08/30 06:03:02;;;;;;;9.07;8.07;;;20.10;97.20;;;;;;1734358;28;20199;-75
2022/08/30 06:03:55;;;;;;;9.55;8.75;;;20.20;97.20;;;;;;1734241;28;20555;-75
2022/08/30 06:04:46;;;;;;;9.52;8.63;;;20.20;97.20;;;;;;1734305;28;20677;-75
2022/08/30 06:05:37;;;;;;;9.45;8.57;;;20.20;97.20;;;;;;1734253;28;20689;-75
2022/08/30 06:06:31;;;;;;;9.07;8.17;;;20.20;97.20;;;;;;1734260;28;20585;-75
2022/08/30 06:07:21;;;;;;;9.27;8.48;;;20.20;97.20;;;;;;1733713;28;20578;-75
2022/08/30 06:08:13;;;;;;;9.60;8.60;;;20.20;97.20;;;;;;1734354;28;20625;-75
2022/08/30 06:09:05;;;;;;;9.30;8.50;;;20.20;97.20;;;;;;1733387;28;20203;-75
2022/08/30 06:09:57;;;;;;;9.95;9.05;;;20.30;97.20;;;;;;1734355;28;20250;-75
2022/08/30 06:10:48;;;;;;;9.77;8.80;;;20.30;97.20;;;;;;1734269;28;20224;-75
2022/08/30 06:11:40;;;;;;;11.80;10.70;;;20.30;97.20;;;;;;1726204;28;20276;-75
2022/08/30 06:12:31;;;;;;;13.25;11.95;;;20.30;97.20;;;;;;1720677;28;20224;-75
2022/08/30 06:13:22;;;;;;;13.03;11.67;;;20.30;97.20;;;;;;1725246;28;20296;-75
2022/08/30 06:14:13;;;;;;;12.30;11.10;;;20.30;97.20;;;;;;1727555;28;20200;-75
2022/08/30 06:15:06;;;;;;;14.18;11.73;;;20.30;97.20;;;;;;1727491;28;20227;-75
2022/08/30 06:15:57;;;;;;;15.23;13.65;;;20.30;97.20;;;;;;1727526;28;20276;-75
2022/08/30 06:16:49;;;;;;;14.67;10.83;;;20.40;97.20;;;;;;1727285;28;20679;-75
2022/08/30 06:17:41;;;;;;;12.30;11.05;;;20.40;97.20;;;;;;1726955;28;20200;-75
2022/08/30 06:18:33;;;;;;;13.30;10.43;;;20.40;97.20;;;;;;1727271;28;20204;-75
2022/08/30 06:19:24;;;;;;;12.73;10.75;;;20.40;97.20;;;;;;1727460;28;20212;-75
2022/08/30 06:20:17;;;;;;;15.87;12.30;;;20.40;97.20;;;;;;1727204;28;20287;-75
2022/08/30 06:21:15;;;;;;;12.18;10.52;;;20.50;97.20;;;;;;1727584;28;20203;-75
2022/08/30 06:22:07;;;;;;;18.42;11.15;;;20.50;97.20;;;;;;1727513;28;20220;-75
2022/08/30 06:22:57;;;;;;;15.23;11.75;;;20.50;97.20;;;;;;1727054;28;20204;-76
2022/08/30 06:23:50;;;;;;;13.37;10.90;;;20.50;97.20;;;;;;1724176;28;20275;-75
2022/08/30 06:24:41;;;;;;;12.65;11.32;;;20.50;97.20;;;;;;1720556;28;20495;-76
2022/08/30 06:25:35;;;;;;;11.37;10.20;;;20.60;97.20;;;;;;1730580;28;20202;-76
2022/08/30 06:26:27;;;;;;;14.07;11.55;;;20.60;97.20;;;;;;1733589;28;20298;-76
2022/08/30 06:27:19;;;;;;;16.17;11.23;;;20.60;97.20;;;;;;1733163;28;20706;-76
2022/08/30 06:28:10;;;;;;;13.40;12.00;;;20.60;97.20;;;;;;1734305;28;20571;-76
2022/08/30 06:29:02;;;;;;;18.60;11.27;;;20.60;97.20;;;;;;1734321;28;20191;-76
2022/08/30 06:29:53;;;;;;;12.63;11.32;;;20.70;97.20;;;;;;1734297;28;20585;-76
2022/08/30 06:30:46;;;;;;;17.03;11.70;;;20.70;97.20;;;;;;1734310;28;20668;-76
2022/08/30 06:31:37;;;;;;;14.55;12.43;;;20.70;97.20;;;;;;1735419;28;20574;-79
2022/08/30 06:32:29;;;;;;;13.60;11.77;;;20.70;97.20;;;;;;1735511;28;20207;-78
2022/08/30 06:33:22;;;;;;;16.88;11.48;;;20.70;97.20;;;;;;1735198;28;20211;-77
2022/08/30 06:34:14;;;;;;;18.42;12.98;;;20.80;97.20;;;;;;1734967;28;20203;-78
2022/08/30 06:35:07;;;;;;;17.50;11.60;;;20.80;97.20;;;;;;1729408;28;20283;-78
2022/08/30 06:36:02;;;;;;;17.45;12.38;;;20.80;97.20;;;;;;1727400;28;20204;-78
2022/08/30 06:36:53;;;;;;;19.55;11.70;;;20.80;97.20;;;;;;1727604;28;20431;-78
2022/08/30 06:37:45;;;;;;;15.40;11.83;;;20.80;97.20;;;;;;1727504;28;20228;-78
2022/08/30 06:38:39;;;;;;;14.82;12.60;;;20.90;97.20;;;;;;1727707;28;20530;-78
2022/08/30 06:39:31;;;;;;;15.02;11.98;;;20.90;97.20;;;;;;1727850;28;20287;-78
2022/08/30 06:40:22;;;;;;;16.65;12.15;;;20.90;97.20;;;;;;1728007;28;20200;-78
2022/08/30 06:41:19;;;;;;;14.15;12.02;;;20.90;97.20;;;;;;1727890;28;20232;-78
2022/08/30 06:42:10;;;;;;;13.60;12.32;;;21.00;97.20;;;;;;1727700;28;20231;-78
2022/08/30 06:43:01;;;;;;;14.97;11.43;;;21.00;97.20;;;;;;1727618;28;20197;-78
2022/08/30 06:43:53;;;;;;;14.27;12.15;;;21.00;97.20;;;;;;1727669;28;20200;-77
2022/08/30 06:44:45;;;;;;;18.52;11.68;;;21.00;97.20;;;;;;1727711;28;20315;-78
2022/08/30 06:45:36;;;;;;;12.15;10.57;;;21.00;97.20;;;;;;1727646;28;20204;-77
2022/08/30 06:46:31;;;;;;;14.97;11.70;;;21.10;97.20;;;;;;1727783;28;20287;-77
2022/08/30 06:47:21;;;;;;;17.15;11.00;;;21.10;97.20;;;;;;1727499;28;20291;-78
2022/08/30 06:48:13;;;;;;;14.90;11.60;;;21.10;97.20;;;;;;1727685;28;20255;-78
2022/08/30 06:49:06;;;;;;;13.18;11.57;;;21.10;97.20;;;;;;1724087;28;20201;-78
2022/08/30 06:49:58;;;;;;;14.40;11.50;;;21.10;97.20;;;;;;1720618;28;20201;-78
2022/08/30 06:50:52;;;;;;;15.43;10.48;;;21.20;97.20;;;;;;1720801;28;20228;-78
2022/08/30 06:51:44;;;;;;;14.57;11.25;;;21.20;97.20;;;;;;1721087;28;20264;-78
2022/08/30 06:52:35;;;;;;;14.40;11.38;;;21.20;97.20;;;;;;1721175;28;20216;-78
2022/08/30 06:53:28;;;;;;;17.43;11.47;;;21.20;97.20;;;;;;1721020;28;20751;-78
2022/08/30 06:54:20;;;;;;;13.55;12.25;;;21.30;97.20;;;;;;1721020;28;20436;-78
2022/08/30 06:55:14;;;;;;;15.80;11.35;;;21.30;97.20;;;;;;1720776;28;20212;-78
2022/08/30 06:56:08;;;;;;;14.52;11.45;;;21.30;97.20;;;;;;1720898;28;20247;-76
2022/08/30 06:57:00;;;;;;;16.85;11.55;;;21.30;97.20;;;;;;1720985;28;20213;-76
2022/08/30 06:57:52;;;;;;;12.88;11.55;;;21.30;97.20;;;;;;1725736;28;20220;-77
2022/08/30 06:58:43;;;;;;;15.70;11.88;;;21.40;97.20;;;;;;1721767;28;20208;-78
2022/08/30 06:59:35;;;;;;;17.90;11.68;;;21.40;97.20;;;;;;1720869;28;20280;-76
2022/08/30 07:00:27;;;;;;;13.75;12.35;;;21.40;97.20;;;;;;1723181;28;20200;-76
2022/08/30 07:01:22;;;;;;;13.82;12.40;;;21.50;97.20;;;;;;1727299;28;20196;-77
2022/08/30 07:02:13;;;;;;;17.40;12.23;;;21.50;97.20;;;;;;1727484;28;20690;-77
2022/08/30 07:03:05;;;;;;;15.20;12.10;;;21.50;97.20;;;;;;1727419;28;20702;-76
2022/08/30 07:03:57;;;;;;;17.70;12.30;;;21.50;97.20;;;;;;1727571;28;20435;-76
2022/08/30 07:04:50;;;;;;;14.90;12.00;;;21.60;97.20;;;;;;1727297;28;20196;-77
2022/08/30 07:05:41;;;;;;;13.98;11.00;;;21.60;97.20;;;;;;1727646;28;20215;-77
2022/08/30 07:06:33;;;;;;;15.43;12.27;;;21.60;97.20;;;;;;1727555;28;20287;-77
2022/08/30 07:07:24;;;;;;;14.57;12.25;;;21.70;97.20;;;;;;1726617;28;20212;-77
2022/08/30 07:08:16;;;;;;;12.97;11.73;;;21.70;97.20;;;;;;1722193;28;20205;-77
2022/08/30 07:09:07;;;;;;;19.10;13.23;;;21.70;97.20;;;;;;1726680;28;20709;-77
2022/08/30 07:09:59;;;;;;;13.77;12.40;;;21.70;97.20;;;;;;1732221;28;20579;-77
2022/08/30 07:10:50;;;;;;;14.32;11.77;;;21.80;97.20;;;;;;1729864;28;20215;-76
2022/08/30 07:11:42;;;;;;;20.40;11.32;;;21.80;97.20;;;;;;1730718;28;20199;-77
2022/08/30 07:12:33;;;;;;;13.63;12.48;;;21.90;97.20;;;;;;1727474;28;20204;-77
2022/08/30 07:13:27;;;;;;;14.83;12.00;;;21.90;97.20;;;;;;1727594;28;20232;-77
2022/08/30 07:14:18;;;;;;;13.85;12.55;;;21.90;97.20;;;;;;1726480;28;20459;-77
2022/08/30 07:15:11;;;;;;;13.60;12.30;;;21.90;97.20;;;;;;1727759;28;20201;-77
2022/08/30 07:16:08;;;;;;;13.68;12.25;;;22.00;97.20;;;;;;1727646;28;20204;-77
2022/08/30 07:17:00;;;;;;;15.60;11.45;;;22.00;97.20;;;;;;1727524;28;20228;-77
2022/08/30 07:19:02;;;;;;;13.45;12.07;;;22.10;97.20;;;;;;1727657;28;20251;-77
2022/08/30 07:19:54;;;;;;;16.40;11.63;;;22.10;97.20;;;;;;1727471;28;20660;-77
2022/08/30 07:20:46;;;;;;;13.13;11.77;;;22.10;97.20;;;;;;1728623;28;20229;-77
2022/08/30 07:21:42;;;;;;;14.70;11.68;;;22.20;97.20;;;;;;1728930;28;20663;-77
2022/08/30 07:22:33;;;;;;;15.80;11.93;;;22.20;97.20;;;;;;1728855;28;20215;-77
2022/08/30 07:23:24;;;;;;;12.43;10.60;;;22.20;97.20;;;;;;1728945;28;20299;-77
2022/08/30 07:24:16;;;;;;;13.15;11.88;;;22.30;97.20;;;;;;1728861;28;20950;-77
2022/08/30 07:25:08;;;;;;;13.43;11.68;;;22.30;97.20;;;;;;1728741;28;20220;-77
2022/08/30 07:26:04;;;;;;;13.07;11.02;;;22.40;97.20;;;;;;1728911;28;20204;-77
2022/08/30 07:26:57;;;;;;;12.18;10.50;;;22.40;97.20;;;;;;1728994;28;20262;-77
2022/08/30 07:27:50;;;;;;;19.08;10.77;;;22.50;97.20;;;;;;1728820;28;20213;-77
2022/08/30 07:28:47;;;;;;;16.73;10.45;;;22.50;97.20;;;;;;1728688;28;20192;-78
2022/08/30 07:29:37;;;;;;;11.48;10.38;;;22.50;97.20;;;;;;1729274;28;20205;-78
2022/08/30 07:30:30;;;;;;;19.37;11.00;;;22.60;97.20;;;;;;1726965;28;20200;-78
2022/08/30 07:31:22;;;;;;;15.95;11.88;;;22.60;97.20;;;;;;1722638;28;20452;-78
2022/08/30 07:32:13;;;;;;;14.35;11.40;;;22.70;97.20;;;;;;1722527;28;20201;-77
2022/08/30 07:33:05;;;;;;;13.05;11.45;;;22.70;97.20;;;;;;1722280;28;20216;-77
2022/08/30 07:33:56;;;;;;;15.13;11.32;;;22.80;97.20;;;;;;1722213;28;20564;-78
2022/08/30 07:34:47;;;;;;;14.43;11.93;;;22.80;97.20;;;;;;1722122;28;20205;-77
2022/08/30 07:35:40;;;;;;;12.10;11.00;;;22.80;97.20;;;;;;1722107;28;20296;-77
2022/08/30 07:36:31;;;;;;;12.10;10.98;;;22.90;97.20;;;;;;1722078;28;20205;-77
2022/08/30 07:37:23;;;;;;;12.05;10.65;;;22.90;97.20;;;;;;1721975;28;20585;-77
2022/08/30 07:38:14;;;;;;;13.52;11.00;;;22.90;97.20;;;;;;1722062;28;20212;-77
2022/08/30 07:39:08;;;;;;;16.30;10.90;;;23.00;97.20;;;;;;1721923;28;20276;-77
2022/08/30 07:39:59;;;;;;;12.75;10.15;;;23.00;97.20;;;;;;1721904;28;20209;-77
2022/08/30 07:40:51;;;;;;;12.07;10.63;;;23.00;97.20;;;;;;1721900;28;20249;-77
2022/08/30 07:41:43;;;;;;;12.40;10.80;;;23.10;97.20;;;;;;1722527;28;20201;-77
2022/08/30 07:42:34;;;;;;;14.50;11.60;;;23.10;97.20;;;;;;1721519;28;20232;-77
2022/08/30 07:43:25;;;;;;;10.68;9.68;;;23.20;97.20;;;;;;1721586;28;20711;-77
2022/08/30 07:44:17;;;;;;;12.18;10.57;;;23.20;97.20;;;;;;1721904;28;20207;-77
2022/08/30 07:45:09;;;;;;;11.60;10.48;;;23.30;97.20;;;;;;1721929;28;20223;-77
2022/08/30 07:46:02;;;;;;;11.45;10.35;;;23.30;97.20;;;;;;1722284;28;20208;-77
2022/08/30 07:46:53;;;;;;;11.93;10.73;;;23.30;97.20;;;;;;1723253;28;20221;-77
2022/08/30 07:47:45;;;;;;;11.77;10.43;;;23.30;97.20;;;;;;1728489;28;20223;-77
2022/08/30 07:48:36;;;;;;;13.52;10.65;;;23.40;97.20;;;;;;1728753;28;20204;-77
2022/08/30 07:49:28;;;;;;;12.17;10.53;;;23.40;97.20;;;;;;1728855;28;20279;-77
2022/08/30 07:50:19;;;;;;;11.32;10.20;;;23.50;97.20;;;;;;1728613;28;20439;-77
2022/08/30 07:51:15;;;;;;;12.50;10.30;;;23.50;97.20;;;;;;1728716;28;20306;-77
2022/08/30 07:52:06;;;;;;;17.60;9.85;;;23.50;97.20;;;;;;1728833;28;20450;-77
2022/08/30 07:52:58;;;;;;;11.70;10.23;;;23.50;97.20;;;;;;1729257;28;20279;-77
2022/08/30 07:53:48;;;;;;;12.75;10.13;;;23.60;97.20;;;;;;1735104;28;20201;-77
2022/08/30 07:54:41;;;;;;;13.67;9.80;;;23.60;97.20;;;;;;1730683;28;20208;-77
2022/08/30 07:55:32;;;;;;;11.40;10.20;;;23.60;97.20;;;;;;1728604;28;20731;-78
2022/08/30 07:56:25;;;;;;;13.27;10.70;;;23.60;97.20;;;;;;1728901;28;20753;-77
2022/08/30 07:57:16;;;;;;;14.07;9.20;;;23.70;97.20;;;;;;1728437;28;20200;-77
2022/08/30 07:58:07;;;;;;;12.47;10.40;;;23.70;97.20;;;;;;1728248;28;20283;-77
2022/08/30 07:58:59;;;;;;;11.13;10.00;;;23.70;97.20;;;;;;1728255;28;20966;-77
2022/08/30 07:59:51;;;;;;;10.27;9.05;;;23.70;97.20;;;;;;1728484;28;20208;-77
2022/08/30 08:00:42;;;;;;;12.48;9.63;;;23.80;97.20;;;;;;1728956;28;20228;-77
2022/08/30 08:01:33;;;;;;;9.88;8.70;;;23.80;97.20;;;;;;1728847;28;20588;-78
2022/08/30 08:02:25;;;;;;;13.50;10.27;;;23.80;97.20;;;;;;1728798;28;20239;-77
2022/08/30 08:03:16;;;;;;;10.77;9.70;;;23.90;97.20;;;;;;1727097;28;20446;-77
2022/08/30 08:04:08;;;;;;;12.90;10.77;;;23.90;97.20;;;;;;1721948;28;20204;-77
2022/08/30 08:04:59;;;;;;;11.45;9.80;;;23.90;97.20;;;;;;1721780;28;20201;-77
2022/08/30 08:05:52;;;;;;;10.55;9.55;;;24.00;97.20;;;;;;1721921;28;20259;-77
2022/08/30 08:06:45;;;;;;;11.35;10.18;;;24.00;97.20;;;;;;1721915;28;20347;-78
2022/08/30 08:07:36;;;;;;;9.60;8.80;;;24.00;97.20;;;;;;1721617;28;20209;-77
2022/08/30 08:08:27;;;;;;;10.33;9.33;;;24.10;97.20;;;;;;1721826;28;20280;-78
2022/08/30 08:09:18;;;;;;;10.13;9.10;;;24.10;97.20;;;;;;1721970;28;20673;-77
2022/08/30 08:10:12;;;;;;;9.60;8.63;;;24.20;97.20;;;;;;1721851;28;20364;-77
2022/08/30 08:11:07;;;;;;;14.88;9.45;;;24.20;97.20;;;;;;1721898;28;20201;-78
2022/08/30 08:11:58;;;;;;;9.60;8.60;;;24.20;97.20;;;;;;1721748;28;20629;-77
2022/08/30 08:12:49;;;;;;;12.88;9.95;;;24.30;97.20;;;;;;1721901;28;20201;-77
2022/08/30 08:13:42;;;;;;;9.80;8.80;;;24.30;97.20;;;;;;1721878;28;20208;-77
2022/08/30 08:14:33;;;;;;;10.15;9.02;;;24.30;97.20;;;;;;1721987;28;20247;-78
2022/08/30 08:15:25;;;;;;;10.13;8.95;;;24.40;97.20;;;;;;1721951;28;20205;-77
2022/08/30 08:16:16;;;;;;;12.65;9.25;;;24.50;97.20;;;;;;1721901;28;20233;-77
2022/08/30 08:17:08;;;;;;;9.50;8.50;;;24.50;97.20;;;;;;1721854;28;20243;-77
2022/08/30 08:17:59;;;;;;;12.27;9.75;;;24.50;97.20;;;;;;1721837;28;20208;-77
2022/08/30 08:18:52;;;;;;;10.15;9.10;;;24.60;97.20;;;;;;1721843;28;20261;-78
2022/08/30 08:19:42;;;;;;;12.00;8.10;;;24.60;97.20;;;;;;1721795;28;20243;-77
2022/08/30 08:20:35;;;;;;;10.37;9.07;;;24.60;97.20;;;;;;1726411;28;20227;-77
2022/08/30 08:21:26;;;;;;;10.90;8.63;;;24.70;97.20;;;;;;1728527;28;20212;-77
2022/08/30 08:22:19;;;;;;;9.43;8.40;;;24.70;97.20;;;;;;1728367;28;20207;-77
2022/08/30 08:23:10;;;;;;;8.80;8.00;;;24.80;97.20;;;;;;1728504;28;20664;-77
2022/08/30 08:24:02;;;;;;;11.13;9.00;;;24.80;97.20;;;;;;1727927;28;20552;-75
2022/08/30 08:24:53;;;;;;;10.32;8.40;;;24.80;97.20;;;;;;1728244;28;20215;-75
2022/08/30 08:25:45;;;;;;;11.60;8.23;;;24.80;97.20;;;;;;1728297;28;20866;-75
2022/08/30 08:26:37;;;;;;;8.70;7.80;;;24.80;97.20;;;;;;1728262;28;20205;-75
2022/08/30 08:27:29;;;;;;;8.10;7.38;;;24.80;97.20;;;;;;1727987;28;20261;-75
2022/08/30 08:28:20;;;;;;;11.27;8.20;;;24.80;97.20;;;;;;1728236;28;20201;-76
2022/08/30 08:29:12;;;;;;;9.60;8.27;;;24.80;97.20;;;;;;1728201;28;20197;-75
2022/08/30 08:30:03;;;;;;;12.27;7.32;;;24.80;97.20;;;;;;1728305;28;20201;-76
2022/08/30 08:30:55;;;;;;;8.88;7.72;;;24.90;97.20;;;;;;1728192;28;20224;-75
2022/08/30 08:31:46;;;;;;;11.07;8.05;;;24.90;97.20;;;;;;1727845;28;20207;-75
2022/08/30 08:32:38;;;;;;;13.90;9.53;;;24.90;97.20;;;;;;1727792;28;20200;-76
2022/08/30 08:33:28;;;;;;;10.55;7.20;;;24.90;97.20;;;;;;1728187;28;20232;-76
2022/08/30 08:34:22;;;;;;;9.23;7.63;;;25.00;97.20;;;;;;1728166;28;20287;-76
2022/08/30 08:35:13;;;;;;;8.20;7.40;;;25.00;97.20;;;;;;1728252;28;20659;-76
2022/08/30 08:36:05;;;;;;;8.30;7.45;;;25.10;97.20;;;;;;1728280;28;20283;-76
2022/08/30 08:36:56;;;;;;;8.63;7.82;;;25.10;97.20;;;;;;1721450;28;20193;-75
2022/08/30 08:37:49;;;;;;;10.10;7.93;;;25.20;97.20;;;;;;1721143;28;20292;-75
2022/08/30 08:38:40;;;;;;;8.30;7.50;;;25.20;97.20;;;;;;1721533;28;20216;-76
2022/08/30 08:39:32;;;;;;;9.23;8.32;;;25.20;97.20;;;;;;1721491;28;20208;-75
2022/08/30 08:40:23;;;;;;;10.43;8.27;;;25.30;97.20;;;;;;1721307;28;20578;-76
2022/08/30 08:41:28;;;;;;;10.27;7.47;;;25.30;97.20;;;;;;1721498;28;20197;-75
2022/08/30 08:42:30;;;;;;;10.18;7.45;;;25.30;97.20;;;;;;1721481;28;20351;-76
2022/08/30 08:43:25;;;;;;;14.30;7.60;;;25.30;97.20;;;;;;1722701;28;20256;-74
2022/08/30 08:44:27;;;;;;;12.70;7.60;;;25.40;97.20;;;;;;1728660;28;20204;-75
2022/08/30 08:45:27;;;;;;;11.05;7.72;;;25.40;97.20;;;;;;1729340;28;20208;-76
2022/08/30 08:46:27;;;;;;;10.82;7.38;;;25.50;97.20;;;;;;1734605;28;20247;-75
2022/08/30 08:47:25;;;;;;;11.43;6.40;;;25.50;97.20;;;;;;1727292;28;20193;-75
2022/08/30 08:48:27;;;;;;;13.65;8.10;;;25.60;97.20;;;;;;1734736;28;20439;-75
2022/08/30 08:49:19;;;;;;;8.30;6.88;;;25.60;97.20;;;;;;1734915;28;20203;-75
2022/08/30 08:50:12;;;;;;;7.50;6.72;;;25.70;97.20;;;;;;1735016;28;20210;-76
2022/08/30 08:53:40;;;;;;;8.73;6.78;;;25.80;97.20;;;;;;1720677;28;20228;-75
2022/08/30 08:54:38;;;;;;;14.30;7.00;;;25.90;97.20;;;;;;1721407;28;20201;-75
2022/08/30 08:55:29;;;;;;;11.43;7.50;;;25.90;97.20;;;;;;1721422;28;20292;-75
2022/08/30 08:56:21;;;;;;;9.77;7.03;;;26.00;97.20;;;;;;1721460;28;20216;-75
2022/08/30 08:57:13;;;;;;;11.27;7.13;;;26.00;97.20;;;;;;1721035;28;20583;-76
2022/08/30 08:58:04;;;;;;;9.00;7.35;;;26.10;97.20;;;;;;1721348;28;20296;-75
2022/08/30 08:58:57;;;;;;;15.20;7.50;;;26.10;97.20;;;;;;1721368;28;20288;-75
2022/08/30 08:59:51;;;;;;;10.75;7.60;;;26.20;97.20;;;;;;1721277;28;20201;-75
2022/08/30 09:00:43;;;;;;;9.90;7.88;;;26.20;97.20;;;;;;1721272;28;20252;-76
2022/08/30 09:01:37;;;;;;;10.02;7.50;;;26.20;97.20;;;;;;1721352;28;20573;-76
2022/08/30 09:02:36;;;;;;;8.82;7.20;;;26.30;97.20;;;;;;1721366;28;20248;-75
2022/08/30 09:03:28;;;;;;;10.30;6.88;;;26.30;97.20;;;;;;1721432;28;20201;-75
2022/08/30 09:04:24;;;;;;;9.20;7.50;;;26.40;97.20;;;;;;1721272;28;20675;-76
2022/08/30 09:05:19;;;;;;;7.65;6.85;;;26.40;97.20;;;;;;1721405;28;20204;-75
2022/08/30 09:06:27;;;;;;;8.40;7.60;;;26.50;97.20;;;;;;1721325;28;20276;-76
2022/08/30 09:07:22;;;;;;;8.07;7.35;;;26.60;97.20;;;;;;1721136;28;20661;-76
2022/08/30 09:08:16;;;;;;;7.00;6.40;;;26.60;97.20;;;;;;1721272;28;20264;-76
2022/08/30 09:09:09;;;;;;;17.50;6.80;;;26.70;97.20;;;;;;1725750;28;20204;-75
2022/08/30 09:10:00;;;;;;;8.15;7.00;;;26.70;97.20;;;;;;1728013;28;20204;-76
2022/08/30 09:10:57;;;;;;;7.25;6.55;;;26.80;97.20;;;;;;1727831;28;20232;-75
2022/08/30 09:11:48;;;;;;;7.30;6.70;;;26.90;97.20;;;;;;1727942;28;20307;-76
2022/08/30 09:12:40;;;;;;;7.30;6.70;;;26.90;97.20;;;;;;1728053;28;20443;-76
2022/08/30 09:13:32;;;;;;;6.97;6.32;;;27.00;97.20;;;;;;1727901;28;20448;-76
2022/08/30 09:14:26;;;;;;;7.77;6.70;;;27.00;97.20;;;;;;1727992;28;20215;-76
2022/08/30 09:15:20;;;;;;;7.93;7.23;;;27.10;97.20;;;;;;1727994;28;20447;-76
2022/08/30 09:16:46;;;;;;;7.83;6.63;;;27.10;97.20;;;;;;1727877;28;20440;-76
2022/08/30 09:17:53;;;;;;;11.05;7.30;;;27.20;97.20;;;;;;1727665;28;20443;-75
2022/08/30 09:18:46;;;;;;;8.88;6.30;;;27.20;97.20;;;;;;1727859;28;20280;-76
2022/08/30 09:19:41;;;;;;;8.40;7.60;;;27.20;97.20;;;;;;1728038;28;20266;-76
2022/08/30 09:20:35;;;;;;;7.07;6.13;;;27.30;97.20;;;;;;1718728;28;20244;-75
2022/08/30 09:21:28;;;;;;;7.68;6.97;;;27.30;97.20;;;;;;1727872;28;20447;-76
2022/08/30 09:22:25;;;;;;;7.38;6.68;;;27.30;97.20;;;;;;1728391;28;20211;-76
2022/08/30 09:23:25;;;;;;;8.02;6.75;;;27.40;97.20;;;;;;1730933;28;20224;-76
2022/08/30 09:24:19;;;;;;;8.02;6.28;;;27.40;97.20;;;;;;1734021;28;20211;-76
2022/08/30 09:25:22;;;;;;;6.67;6.07;;;27.40;97.20;;;;;;1726910;28;20294;-76
2022/08/30 09:26:13;;;;;;;9.40;7.40;;;27.50;97.20;;;;;;1726811;28;20555;-76
2022/08/30 09:27:16;;;;;;;9.13;7.87;;;27.50;97.20;;;;;;1727936;28;20199;-76
2022/08/30 09:28:10;;;;;;;6.50;5.93;;;27.50;97.20;;;;;;1727650;28;20833;-76
2022/08/30 09:29:03;;;;;;;9.23;7.00;;;27.60;97.20;;;;;;1727939;28;20207;-76
2022/08/30 09:29:58;;;;;;;6.63;6.13;;;27.60;97.20;;;;;;1727920;28;20331;-76
2022/08/30 09:31:03;;;;;;;8.70;6.23;;;27.70;97.20;;;;;;1727772;28;20482;-76
2022/08/30 09:31:54;;;;;;;12.73;6.40;;;27.70;97.20;;;;;;1727856;28;20476;-76
2022/08/30 09:32:52;;;;;;;7.80;7.00;;;27.80;97.20;;;;;;1727948;28;20227;-76
2022/08/30 09:33:53;;;;;;;9.80;5.90;;;27.80;97.20;;;;;;1727672;28;20526;-76
2022/08/30 09:34:46;;;;;;;6.35;5.72;;;27.90;97.20;;;;;;1727885;28;20463;-76
2022/08/30 09:35:41;;;;;;;6.37;5.87;;;27.90;97.20;;;;;;1727371;28;20204;-76
2022/08/30 09:36:38;;;;;;;7.17;6.47;;;27.90;97.20;;;;;;1727782;28;20452;-75